createdAt,value
2019-05-28T00:00:02.919Z,991.9
2019-05-28T00:05:01.241Z,991.91
2019-05-28T00:10:01.535Z,991.82
2019-05-28T00:15:01.859Z,991.78
2019-05-28T00:20:01.971Z,991.75
2019-05-28T00:25:02.108Z,991.75
2019-05-28T00:30:16.339Z,991.63
2019-05-28T00:35:01.855Z,991.58
2019-05-28T00:40:02.752Z,991.55
2019-05-28T00:45:02.024Z,991.56
2019-05-28T00:50:01.288Z,991.54
2019-05-28T00:55:01.461Z,991.49
2019-05-28T01:00:01.649Z,991.41
2019-05-28T01:05:01.866Z,991.36
2019-05-28T01:10:02.144Z,991.36
2019-05-28T01:15:01.740Z,991.4
2019-05-28T01:20:01.877Z,991.4
2019-05-28T01:25:01.987Z,991.4
2019-05-28T01:30:01.121Z,991.4
2019-05-28T01:35:01.462Z,991.36
2019-05-28T01:40:01.591Z,991.35
2019-05-28T01:45:02.015Z,991.31
2019-05-28T01:50:01.117Z,991.26
2019-05-28T01:55:01.304Z,991.17
2019-05-28T02:00:01.478Z,991.09
2019-05-28T02:05:01.625Z,991.08
2019-05-28T02:10:01.766Z,991.11
2019-05-28T02:15:01.953Z,991.09
2019-05-28T02:20:02.069Z,991.13
2019-05-28T02:25:01.214Z,991.11
2019-05-28T02:30:01.322Z,991.15
2019-05-28T02:35:01.566Z,991.16
2019-05-28T02:40:01.548Z,991.08
2019-05-28T02:45:01.675Z,991.12
2019-05-28T02:50:01.809Z,991.21
2019-05-28T02:55:01.963Z,991.2
2019-05-28T03:00:02.006Z,991.26
2019-05-28T03:05:01.114Z,991.23
2019-05-28T03:10:01.202Z,991.17
2019-05-28T03:15:01.405Z,991.22
2019-05-28T03:20:01.514Z,991.17
2019-05-28T03:25:01.662Z,991.09
2019-05-28T03:30:01.805Z,991.11
2019-05-28T03:35:01.945Z,991.05
2019-05-28T03:40:02.071Z,991.02
2019-05-28T03:45:01.177Z,991
2019-05-28T03:50:01.272Z,991.01
2019-05-28T03:55:01.418Z,991.1
2019-05-28T04:00:01.542Z,991.12
2019-05-28T04:05:01.667Z,991.19
2019-05-28T04:10:01.824Z,991.19
2019-05-28T04:15:02.025Z,991.21
2019-05-28T04:20:01.123Z,991.13
2019-05-28T04:25:01.217Z,991.11
2019-05-28T04:30:01.378Z,991.21
2019-05-28T04:35:01.681Z,991.18
2019-05-28T04:40:01.257Z,991.13
2019-05-28T04:45:01.406Z,991.17
2019-05-28T04:50:01.505Z,991.19
2019-05-28T04:55:01.399Z,991.19
2019-05-28T05:00:01.498Z,991.15
2019-05-28T05:05:01.601Z,991.15
2019-05-28T05:10:01.743Z,991.17
2019-05-28T05:15:02.278Z,991.25
2019-05-28T05:20:01.708Z,991.25
2019-05-28T05:25:02.107Z,991.27
2019-05-28T05:30:01.311Z,991.29
2019-05-28T05:35:01.468Z,991.29
2019-05-28T05:40:01.727Z,991.34
2019-05-28T05:45:01.835Z,991.33
2019-05-28T05:50:01.940Z,991.36
2019-05-28T05:55:02.185Z,991.37
2019-05-28T06:00:01.346Z,991.31
2019-05-28T06:05:01.466Z,991.38
2019-05-28T06:10:01.629Z,991.33
2019-05-28T06:15:01.949Z,991.32
2019-05-28T06:20:01.147Z,991.36
2019-05-28T06:25:01.289Z,991.36
2019-05-28T06:30:01.450Z,991.36
2019-05-28T06:35:01.595Z,991.4
2019-05-28T06:40:01.721Z,991.45
2019-05-28T06:45:01.867Z,991.5
2019-05-28T06:50:01.961Z,991.52
2019-05-28T06:55:02.141Z,991.57
2019-05-28T07:00:01.270Z,991.5
2019-05-28T07:05:01.383Z,991.52
2019-05-28T07:10:01.519Z,991.58
2019-05-28T07:15:01.990Z,991.6
2019-05-28T07:20:01.185Z,991.55
2019-05-28T07:25:01.268Z,991.58
2019-05-28T07:30:01.362Z,991.52
2019-05-28T07:35:01.499Z,991.53
2019-05-28T07:40:01.624Z,991.54
2019-05-28T07:45:02.051Z,991.57
2019-05-28T07:50:01.335Z,991.51
2019-05-28T07:55:01.506Z,991.54
2019-05-28T08:00:05.407Z,991.53
2019-05-28T08:05:01.955Z,991.57
2019-05-28T08:10:02.056Z,991.57
2019-05-28T08:15:01.199Z,991.55
2019-05-28T08:20:01.367Z,991.5
2019-05-28T08:25:01.500Z,991.42
2019-05-28T08:30:01.682Z,991.52
2019-05-28T08:35:05.348Z,991.51
2019-05-28T08:40:01.300Z,991.47
2019-05-28T08:45:01.435Z,991.58
2019-05-28T08:50:01.543Z,991.65
2019-05-28T08:55:01.736Z,991.59
2019-05-28T09:00:02.031Z,991.44
2019-05-28T09:05:01.187Z,991.59
2019-05-28T09:10:01.314Z,991.51
2019-05-28T09:15:01.463Z,991.43
2019-05-28T09:20:01.572Z,991.4
2019-05-28T09:25:01.709Z,991.45
2019-05-28T09:30:01.841Z,991.45
2019-05-28T09:35:02.915Z,991.47
2019-05-28T09:40:01.181Z,991.39
2019-05-28T09:45:01.308Z,991.37
2019-05-28T09:50:01.408Z,991.32
2019-05-28T09:55:01.523Z,991.32
2019-05-28T10:00:01.667Z,991.3
2019-05-28T10:05:01.775Z,991.28
2019-05-28T10:10:01.921Z,991.28
2019-05-28T10:15:02.139Z,991.43
2019-05-28T10:20:01.239Z,991.5
2019-05-28T10:25:01.324Z,991.68
2019-05-28T10:30:01.446Z,991.68
2019-05-28T10:35:04.226Z,991.86
2019-05-28T10:40:01.610Z,991.92
2019-05-28T10:45:01.718Z,991.89
2019-05-28T10:50:01.813Z,991.95
2019-05-28T10:55:02.908Z,991.96
2019-05-28T11:00:01.239Z,992.06
2019-05-28T11:05:01.417Z,992.04
2019-05-28T11:10:01.547Z,992.03
2019-05-28T11:15:01.714Z,992.13
2019-05-28T11:20:01.829Z,992.32
2019-05-28T11:25:01.982Z,992.49
2019-05-28T11:30:01.134Z,992.68
2019-05-28T11:35:01.267Z,992.88
2019-05-28T11:40:01.408Z,993.1
2019-05-28T11:45:01.698Z,993.11
2019-05-28T11:50:02.335Z,993.18
2019-05-28T11:55:01.670Z,993.18
2019-05-28T12:00:01.819Z,993.14
2019-05-28T12:05:02.047Z,993.21
2019-05-28T12:10:01.248Z,993.14
2019-05-28T12:15:01.529Z,993.18
2019-05-28T12:20:01.661Z,993.17
2019-05-28T12:25:02.166Z,993.21
2019-05-28T12:30:01.573Z,993.13
2019-05-28T12:35:01.700Z,993.16
2019-05-28T12:40:01.846Z,993.09
2019-05-28T12:45:09.626Z,993.15
2019-05-28T12:50:18.549Z,993.16
2019-05-28T12:55:01.334Z,993.29
2019-05-28T13:00:01.547Z,993.26
2019-05-28T13:05:01.699Z,993.44
2019-05-28T13:10:02.021Z,993.51
2019-05-28T13:15:01.456Z,993.55
2019-05-28T13:20:01.770Z,993.58
2019-05-28T13:25:01.966Z,993.52
2019-05-28T13:30:02.382Z,993.58
2019-05-28T13:35:02.302Z,993.61
2019-05-28T13:40:01.614Z,993.64
2019-05-28T13:45:02.075Z,993.74
2019-05-28T13:50:01.521Z,993.73
2019-05-28T13:55:01.808Z,993.76
2019-05-28T14:00:01.976Z,993.71
2019-05-28T14:05:01.086Z,993.72
2019-05-28T14:10:01.267Z,993.81
2019-05-28T14:15:01.416Z,993.83
2019-05-28T14:20:01.532Z,993.84
2019-05-28T14:25:01.702Z,993.89
2019-05-28T14:30:01.898Z,993.97
2019-05-28T14:35:02.005Z,994.08
2019-05-28T14:40:01.142Z,994.16
2019-05-28T14:45:01.273Z,994.16
2019-05-28T14:50:01.550Z,994.21
2019-05-28T14:55:01.689Z,994.26
2019-05-28T15:00:03.163Z,994.34
2019-05-28T15:05:01.681Z,994.34
2019-05-28T15:10:01.812Z,994.39
2019-05-28T15:15:01.954Z,994.46
2019-05-28T15:20:02.057Z,994.45
2019-05-28T15:25:01.190Z,994.62
2019-05-28T15:30:01.386Z,994.82
2019-05-28T15:35:01.531Z,994.85
2019-05-28T15:40:01.686Z,994.95
2019-05-28T15:45:01.826Z,995
2019-05-28T15:50:01.958Z,994.97
2019-05-28T15:55:02.088Z,994.94
2019-05-28T16:00:01.221Z,994.97
2019-05-28T16:05:01.356Z,994.98
2019-05-28T16:10:01.511Z,994.95
2019-05-28T16:15:01.635Z,995.01
2019-05-28T16:20:01.755Z,994.96
2019-05-28T16:25:01.891Z,994.99
2019-05-28T16:30:02.048Z,995.05
2019-05-28T16:35:01.150Z,995.11
2019-05-28T16:40:14.479Z,995.26
2019-05-28T16:45:01.368Z,995.34
2019-05-28T16:50:01.874Z,995.35
2019-05-28T16:55:01.167Z,995.5
2019-05-28T17:00:01.309Z,995.59
2019-05-28T17:05:01.421Z,995.66
2019-05-28T17:10:01.576Z,995.69
2019-05-28T17:15:01.721Z,995.79
2019-05-28T17:20:01.859Z,995.85
2019-05-28T17:25:01.996Z,995.94
2019-05-28T17:30:16.851Z,995.96
2019-05-28T17:35:01.958Z,996.07
2019-05-28T17:40:02.105Z,996.18
2019-05-28T17:45:01.235Z,996.24
2019-05-28T17:50:01.359Z,996.25
2019-05-28T17:55:01.539Z,996.33
2019-05-28T18:00:01.674Z,996.39
2019-05-28T18:05:02.226Z,996.5
2019-05-28T18:10:01.613Z,996.54
2019-05-28T18:15:01.708Z,996.62
2019-05-28T18:20:01.824Z,996.71
2019-05-28T18:25:01.911Z,996.73
2019-05-28T18:30:02.046Z,996.85
2019-05-28T18:35:01.204Z,996.9
2019-05-28T18:40:01.356Z,996.97
2019-05-28T18:45:01.493Z,997.03
2019-05-28T18:50:03.120Z,997.09
2019-05-28T18:55:02.956Z,997.22
2019-05-28T19:00:01.758Z,997.26
2019-05-28T19:05:01.891Z,997.47
2019-05-28T19:10:02.041Z,997.49
2019-05-28T19:15:01.180Z,997.58
2019-05-28T19:20:01.301Z,997.68
2019-05-28T19:25:01.393Z,997.79
2019-05-28T19:30:01.545Z,997.83
2019-05-28T19:35:01.759Z,997.99
2019-05-28T19:40:01.996Z,998.11
2019-05-28T19:45:01.133Z,998.21
2019-05-28T19:50:01.381Z,998.31
2019-05-28T19:55:01.564Z,998.39
2019-05-28T20:00:01.695Z,998.48
2019-05-28T20:05:01.830Z,998.56
2019-05-28T20:10:02.188Z,998.72
2019-05-28T20:15:01.818Z,998.78
2019-05-28T20:20:02.128Z,998.93
2019-05-28T20:25:01.281Z,998.98
2019-05-28T20:30:01.450Z,999.05
2019-05-28T20:35:01.590Z,999.08
2019-05-28T20:40:02.224Z,999.17
2019-05-28T20:45:02.476Z,999.2
2019-05-28T20:50:04.361Z,999.29
2019-05-28T20:55:01.770Z,999.33
2019-05-28T21:00:01.900Z,999.37
2019-05-28T21:05:02.008Z,999.33
2019-05-28T21:10:01.153Z,999.43
2019-05-28T21:15:01.272Z,999.49
2019-05-28T21:20:01.412Z,999.54
2019-05-28T21:25:01.537Z,999.58
2019-05-28T21:30:01.728Z,999.57
2019-05-28T21:35:02.770Z,999.64
2019-05-28T21:40:02.167Z,999.67
2019-05-28T21:45:02.538Z,999.77
2019-05-28T21:50:02.843Z,999.83
2019-05-28T21:55:03.493Z,999.81
2019-05-28T22:00:02.364Z,999.87
2019-05-28T22:05:03.450Z,999.93
2019-05-28T22:10:02.391Z,999.99
2019-05-28T22:15:02.236Z,1000.01
2019-05-28T22:20:02.610Z,1000.04
2019-05-28T22:25:02.700Z,1000.14
2019-05-28T22:30:04.299Z,1000.19
2019-05-28T22:35:02.076Z,1000.19
2019-05-28T22:40:01.454Z,1000.25
2019-05-28T22:45:01.624Z,1000.35
2019-05-28T22:50:18.005Z,1000.36
2019-05-28T22:55:01.804Z,1000.38
2019-05-28T23:00:03.097Z,1000.43
2019-05-28T23:05:01.280Z,1000.51
2019-05-28T23:10:01.652Z,1000.51
2019-05-28T23:15:02.007Z,1000.62
2019-05-28T23:20:02.740Z,1000.67
2019-05-28T23:25:03.212Z,1000.74
2019-05-28T23:30:06.905Z,1000.77
2019-05-28T23:35:02.516Z,1000.81
2019-05-28T23:40:03.051Z,1000.85
2019-05-28T23:45:01.269Z,1000.89
2019-05-28T23:50:01.388Z,1000.96
2019-05-28T23:55:01.513Z,1001.03
